Main page
METAR-TAF:

METAR-TAF

Airports :

Verona Villafranca Airport

Verona, Italy

latitude: 45-23N, longitude: 010-52E, elevation: 67 m

Current weather observation

The report was made 49 minutes ago, at 13:20 UTC
Wind 6 kt from the West/Southwest
Temperature 28°C
Humidity 48%
Pressure 1016 hPa
Visibility 10 km or more
Few clouds at a height of 5000 ft

METAR: LIPX 171320Z 24006KT 9999 FEW050 28/16 Q1016

Time: 16:09 (14:09 UTC)

Forecast

The report was made 3 hours and 9 minutes ago, at 11:00 UTC
Forecast valid from 17 at 12 UTC to 18 at 12 UTC
Wind 4 kt from variable directions
Visibility 10 km or more
Few clouds at a height of 3500 ft

TAF: LIPX 171100Z 1712/1812 VRB04KT 9999 FEW035

Weather observations and forecasts of more than 4000 airports (METAR and TAF reports).

The available stations are represented by yellow and red dots on the map.

Hover mouse over dot to see the name of the station.

Then click to see weather observations and forecasts.

To change the map : click on the green buttons with a black cross to zoom in, on the green button with a dash to zoom out, or on the green arrows for adjacent maps.


METAR-TAF: